Time;durP1;ratioP1;P1;durP2;ratioP2;P2;SDS_P1;SDS_P2;PMS_P1;PMS_P2;Temp;Humidity;BMP_temperature;BMP_pressure;BME280_temperature;BME280_humidity;BME280_pressure;Samples;Min_cycle;Max_cycle;Signal;HPM_P1;HPM_P2
2022/07/26 00:02:15;;;;;;;;;;;;;;;;;;5054734;28;20086;-42
2022/07/26 00:04:41;;;;;;;;;;;;;;;;;;5054586;28;19955;-42
2022/07/26 00:07:06;;;;;;;;;;;;;;;;;;5054274;28;19909;-41
2022/07/26 00:09:31;;;;;;;;;;;;;;;;;;5054488;28;19935;-42
2022/07/26 00:11:56;;;;;;;;;;;;;;;;;;5054130;28;20291;-40
2022/07/26 00:14:22;;;;;;;;;;;;;;;;;;5054215;28;19915;-41
2022/07/26 00:16:47;;;;;;;;;;;;;;;;;;5054092;28;19936;-42
2022/07/26 00:19:12;;;;;;;;;;;;;;;;;;5054012;28;19904;-41
2022/07/26 00:21:37;;;;;;;;;;;;;;;;;;5054147;28;19912;-44
2022/07/26 00:24:03;;;;;;;;;;;;;;;;;;5053894;28;19905;-41
2022/07/26 00:26:28;;;;;;;;;;;;;;;;;;5054255;28;19962;-41
2022/07/26 00:28:53;;;;;;;;;;;;;;;;;;5053979;28;19992;-41
2022/07/26 00:31:19;;;;;;;;;;;;;;;;;;5053933;28;19935;-42
2022/07/26 00:33:44;;;;;;;;;;;;;;;;;;5053881;28;19985;-40
2022/07/26 00:36:09;;;;;;;;;;;;;;;;;;5053656;28;19913;-40
2022/07/26 00:38:34;;;;;;;;;;;;;;;;;;5054074;28;19909;-42
2022/07/26 00:41:00;;;;;;;;;;;;;;;;;;5053487;28;20333;-42
2022/07/26 00:43:25;;;;;;;;;;;;;;;;;;5053988;28;19979;-40
2022/07/26 00:45:50;;;;;;;;;;;;;;;;;;5053290;28;20333;-42
2022/07/26 00:48:15;;;;;;;;;;;;;;;;;;5053489;28;19920;-41
2022/07/26 00:50:41;;;;;;;;;;;;;;;;;;5053554;28;20423;-41
2022/07/26 00:53:06;;;;;;;;;;;;;;;;;;5053657;28;19912;-40
2022/07/26 00:55:31;;;;;;;;;;;;;;;;;;5053614;28;19915;-41
2022/07/26 00:57:59;;;;;;;;;;;;;;;;;;5053360;28;20290;-40
2022/07/26 01:00:26;;;;;;;;;;;;;;;;;;5053395;28;19995;-41
2022/07/26 01:02:51;;;;;;;;;;;;;;;;;;5053415;28;19915;-42
2022/07/26 01:05:17;;;;;;;;;;;;;;;;;;5053430;28;19909;-41
2022/07/26 01:07:42;;;;;;;;;;;;;;;;;;5053114;28;20382;-41
2022/07/26 01:10:09;;;;;;;;;;;;;;;;;;5053345;28;19954;-40
2022/07/26 01:12:34;;;;;;;;;;;;;;;;;;5053085;28;20692;-44
2022/07/26 01:14:59;;;;;;;;;;;;;;;;;;5053248;28;20039;-41
2022/07/26 01:17:25;;;;;;;;;;;;;;;;;;5052790;28;19955;-42
2022/07/26 01:19:50;;;;;;;;;;;;;;;;;;5052944;28;19997;-42
2022/07/26 01:22:15;;;;;;;;;;;;;;;;;;5052875;28;19938;-40
2022/07/26 01:24:41;;;;;;;;;;;;;;;;;;5053079;28;20266;-40
2022/07/26 01:27:06;;;;;;;;;;;;;;;;;;5052701;28;19905;-41
2022/07/26 01:29:31;;;;;;;;;;;;;;;;;;5052911;28;19963;-42
2022/07/26 01:31:57;;;;;;;;;;;;;;;;;;5052610;28;19959;-41
2022/07/26 01:34:22;;;;;;;;;;;;;;;;;;5052720;28;20389;-41
2022/07/26 01:36:47;;;;;;;;;;;;;;;;;;5052961;28;19912;-41
2022/07/26 01:39:12;;;;;;;;;;;;;;;;;;5052426;28;20305;-41
2022/07/26 01:41:38;;;;;;;;;;;;;;;;;;5052641;28;19911;-40
2022/07/26 01:44:03;;;;;;;;;;;;;;;;;;5052632;28;19955;-40
2022/07/26 01:46:28;;;;;;;;;;;;;;;;;;5052731;28;20314;-41
2022/07/26 01:48:54;;;;;;;;;;;;;;;;;;5052539;28;20015;-42
2022/07/26 01:51:19;;;;;;;;;;;;;;;;;;5052289;28;20008;-41
2022/07/26 01:53:44;;;;;;;;;;;;;;;;;;5052331;28;19913;-40
2022/07/26 01:56:10;;;;;;;;;;;;;;;;;;5052325;28;19908;-40
2022/07/26 01:58:35;;;;;;;;;;;;;;;;;;5051495;28;19951;-41
2022/07/26 02:01:00;;;;;;;;;;;;;;;;;;5052440;28;19913;-41
2022/07/26 02:03:26;;;;;;;;;;;;;;;;;;5052174;28;20418;-40
2022/07/26 02:05:51;;;;;;;;;;;;;;;;;;5052047;28;19931;-41
2022/07/26 02:08:16;;;;;;;;;;;;;;;;;;5052363;28;19923;-41
2022/07/26 02:11:00;;;;;;;;;;;;;;;;;;5051932;28;19905;-43
2022/07/26 02:13:25;;;;;;;;;;;;;;;;;;5052271;28;19909;-41
2022/07/26 02:15:51;;;;;;;;;;;;;;;;;;5052059;28;20263;-41
2022/07/26 02:18:16;;;;;;;;;;;;;;;;;;5052327;28;20427;-41
2022/07/26 02:20:41;;;;;;;;;;;;;;;;;;5052080;28;19926;-41
2022/07/26 02:23:06;;;;;;;;;;;;;;;;;;5051870;28;19909;-42
2022/07/26 02:25:32;;;;;;;;;;;;;;;;;;5051907;28;19911;-40
2022/07/26 02:27:57;;;;;;;;;;;;;;;;;;5051927;28;19951;-42
2022/07/26 02:30:22;;;;;;;;;;;;;;;;;;5051768;28;19912;-43
2022/07/26 02:32:48;;;;;;;;;;;;;;;;;;5051823;28;19913;-42
2022/07/26 02:35:13;;;;;;;;;;;;;;;;;;5051549;28;19958;-41
2022/07/26 02:37:39;;;;;;;;;;;;;;;;;;5051830;28;19963;-41
2022/07/26 02:40:04;;;;;;;;;;;;;;;;;;5051788;28;19979;-41
2022/07/26 02:42:29;;;;;;;;;;;;;;;;;;5051911;28;19913;-41
2022/07/26 02:44:55;;;;;;;;;;;;;;;;;;5051830;28;20015;-41
2022/07/26 02:47:20;;;;;;;;;;;;;;;;;;5051629;28;20467;-41
2022/07/26 02:49:45;;;;;;;;;;;;;;;;;;5051553;28;19912;-40
2022/07/26 02:52:10;;;;;;;;;;;;;;;;;;5051531;28;19995;-42
2022/07/26 02:54:35;;;;;;;;;;;;;;;;;;5051845;28;19940;-42
2022/07/26 02:57:01;;;;;;;;;;;;;;;;;;5051722;28;19919;-42
2022/07/26 02:59:26;;;;;;;;;;;;;;;;;;5051451;28;19955;-42
2022/07/26 03:01:51;;;;;;;;;;;;;;;;;;5051507;28;19915;-41
2022/07/26 03:04:16;;;;;;;;;;;;;;;;;;5051465;28;19912;-41
2022/07/26 03:06:42;;;;;;;;;;;;;;;;;;5051408;28;19912;-40
2022/07/26 03:09:07;;;;;;;;;;;;;;;;;;5052831;28;19916;-42
2022/07/26 03:11:33;;;;;;;;;;;;;;;;;;5055649;28;19913;-42
2022/07/26 03:13:58;;;;;;;;;;;;;;;;;;5055655;28;19916;-40
2022/07/26 03:16:23;;;;;;;;;;;;;;;;;;5055108;28;20504;-40
2022/07/26 03:18:49;;;;;;;;;;;;;;;;;;5053939;28;19986;-43
2022/07/26 03:21:14;;;;;;;;;;;;;;;;;;5055132;28;19916;-40
2022/07/26 03:23:39;;;;;;;;;;;;;;;;;;5055425;28;19905;-40
2022/07/26 03:26:04;;;;;;;;;;;;;;;;;;5054989;28;19935;-41
2022/07/26 03:28:30;;;;;;;;;;;;;;;;;;5055292;28;19921;-41
2022/07/26 03:30:55;;;;;;;;;;;;;;;;;;5054883;28;19917;-41
2022/07/26 03:33:20;;;;;;;;;;;;;;;;;;5055325;28;19913;-41
2022/07/26 03:35:46;;;;;;;;;;;;;;;;;;5055304;28;19999;-41
2022/07/26 03:38:11;;;;;;;;;;;;;;;;;;5055033;28;20329;-41
2022/07/26 03:40:36;;;;;;;;;;;;;;;;;;5054911;28;20347;-41
2022/07/26 03:43:02;;;;;;;;;;;;;;;;;;5054928;28;19908;-42
2022/07/26 03:45:28;;;;;;;;;;;;;;;;;;5054722;28;20366;-41
2022/07/26 03:47:53;;;;;;;;;;;;;;;;;;5054625;28;20249;-40
2022/07/26 03:50:18;;;;;;;;;;;;;;;;;;5053394;28;19995;-41
2022/07/26 03:52:44;;;;;;;;;;;;;;;;;;5054841;28;20020;-40
2022/07/26 03:57:53;;;;;;;;;;;;;;;;;;5054965;28;19909;-41
2022/07/26 04:00:18;;;;;;;;;;;;;;;;;;5054645;28;20417;-42
2022/07/26 04:02:43;;;;;;;;;;;;;;;;;;5054405;28;19909;-41
2022/07/26 04:05:09;;;;;;;;;;;;;;;;;;5054352;28;19905;-41
2022/07/26 04:07:34;;;;;;;;;;;;;;;;;;5054502;28;19936;-41
2022/07/26 04:10:00;;;;;;;;;;;;;;;;;;5054520;28;19908;-41
2022/07/26 04:12:25;;;;;;;;;;;;;;;;;;5054557;28;20259;-40
2022/07/26 04:14:50;;;;;;;;;;;;;;;;;;5054493;28;19915;-42
2022/07/26 04:17:15;;;;;;;;;;;;;;;;;;5054033;28;19924;-41
2022/07/26 04:19:41;;;;;;;;;;;;;;;;;;5054263;28;20254;-41
2022/07/26 04:22:21;;;;;;;;;;;;;;;;;;5030541;28;19935;-42
2022/07/26 04:24:46;;;;;;;;;;;;;;;;;;5054313;28;19913;-41
2022/07/26 04:27:12;;;;;;;;;;;;;;;;;;5054182;28;20347;-40
2022/07/26 04:29:37;;;;;;;;;;;;;;;;;;5053797;28;19920;-42
2022/07/26 04:32:03;;;;;;;;;;;;;;;;;;5054081;28;19955;-40
2022/07/26 04:34:28;;;;;;;;;;;;;;;;;;5052561;28;19984;-40
2022/07/26 04:36:53;;;;;;;;;;;;;;;;;;5053999;28;19915;-41
2022/07/26 04:39:23;;;;;;;;;;;;;;;;;;5053702;28;19954;-41
2022/07/26 04:41:48;;;;;;;;;;;;;;;;;;5053726;28;19942;-40
2022/07/26 04:44:13;;;;;;;;;;;;;;;;;;5053871;28;19917;-40
2022/07/26 04:46:39;;;;;;;;;;;;;;;;;;5052765;28;20355;-40
2022/07/26 04:49:04;;;;;;;;;;;;;;;;;;5053614;28;20413;-41
2022/07/26 04:51:30;;;;;;;;;;;;;;;;;;5053451;28;20649;-41
2022/07/26 04:53:55;;;;;;;;;;;;;;;;;;5053442;28;20500;-41
2022/07/26 04:56:20;;;;;;;;;;;;;;;;;;5053667;28;19946;-41
2022/07/26 04:58:46;;;;;;;;;;;;;;;;;;5052139;28;19928;-41
2022/07/26 05:01:11;;;;;;;;;;;;;;;;;;5053557;28;20331;-40
2022/07/26 05:03:36;;;;;;;;;;;;;;;;;;5053284;28;19909;-40
2022/07/26 05:06:02;;;;;;;;;;;;;;;;;;5053557;28;19934;-41
2022/07/26 05:08:27;;;;;;;;;;;;;;;;;;5053374;28;20449;-40
2022/07/26 05:10:52;;;;;;;;;;;;;;;;;;5053152;28;19905;-40
2022/07/26 05:13:17;;;;;;;;;;;;;;;;;;5053073;28;19936;-41
2022/07/26 05:15:43;;;;;;;;;;;;;;;;;;5052878;28;19999;-41
2022/07/26 05:18:08;;;;;;;;;;;;;;;;;;5051720;28;19935;-42
2022/07/26 05:20:34;;;;;;;;;;;;;;;;;;5053298;28;20278;-40
2022/07/26 05:22:59;;;;;;;;;;;;;;;;;;5053060;28;19913;-41
2022/07/26 05:25:24;;;;;;;;;;;;;;;;;;5053119;28;19912;-40
2022/07/26 05:27:50;;;;;;;;;;;;;;;;;;5052988;28;19959;-41
2022/07/26 05:30:15;;;;;;;;;;;;;;;;;;5052632;28;20417;-41
2022/07/26 05:32:41;;;;;;;;;;;;;;;;;;5052789;28;19919;-41
2022/07/26 05:35:06;;;;;;;;;;;;;;;;;;5051351;28;20367;-41
2022/07/26 05:37:31;;;;;;;;;;;;;;;;;;5052623;28;19912;-41
2022/07/26 05:39:56;;;;;;;;;;;;;;;;;;5052435;28;19904;-41
2022/07/26 05:42:22;;;;;;;;;;;;;;;;;;5052843;28;19961;-41
2022/07/26 05:44:47;;;;;;;;;;;;;;;;;;5052576;28;19930;-40
2022/07/26 05:47:13;;;;;;;;;;;;;;;;;;5052415;28;19995;-42
2022/07/26 05:49:38;;;;;;;;;;;;;;;;;;5052282;28;19920;-42
2022/07/26 05:52:04;;;;;;;;;;;;;;;;;;5052333;28;19916;-42
2022/07/26 05:54:29;;;;;;;;;;;;;;;;;;5052280;28;19904;-40
2022/07/26 05:56:54;;;;;;;;;;;;;;;;;;5052337;28;19912;-41
2022/07/26 05:59:20;;;;;;;;;;;;;;;;;;5052162;28;20305;-41
2022/07/26 06:01:45;;;;;;;;;;;;;;;;;;5052213;28;20333;-42
2022/07/26 06:04:11;;;;;;;;;;;;;;;;;;5052437;28;20399;-41
2022/07/26 06:06:37;;;;;;;;;;;;;;;;;;5052459;28;19932;-40
2022/07/26 06:09:02;;;;;;;;;;;;;;;;;;5052120;28;20007;-40
2022/07/26 06:11:28;;;;;;;;;;;;;;;;;;5052377;28;19913;-40
2022/07/26 06:13:53;;;;;;;;;;;;;;;;;;5050757;28;20422;-41
2022/07/26 06:16:18;;;;;;;;;;;;;;;;;;5051916;28;20350;-40
2022/07/26 06:18:43;;;;;;;;;;;;;;;;;;5051970;28;19919;-41
2022/07/26 06:21:09;;;;;;;;;;;;;;;;;;5051867;28;19913;-40
2022/07/26 06:23:34;;;;;;;;;;;;;;;;;;5051905;28;19905;-40
2022/07/26 06:26:00;;;;;;;;;;;;;;;;;;5052076;28;19909;-41
2022/07/26 06:28:25;;;;;;;;;;;;;;;;;;5051587;28;19935;-42
2022/07/26 06:30:50;;;;;;;;;;;;;;;;;;5050587;28;19913;-40
2022/07/26 06:33:16;;;;;;;;;;;;;;;;;;5051946;28;19911;-42
2022/07/26 06:35:41;;;;;;;;;;;;;;;;;;5051746;28;20395;-41
2022/07/26 06:38:06;;;;;;;;;;;;;;;;;;5051806;28;19947;-41
2022/07/26 06:40:32;;;;;;;;;;;;;;;;;;5051654;28;20283;-40
2022/07/26 06:42:57;;;;;;;;;;;;;;;;;;5051493;28;19976;-42
2022/07/26 06:45:22;;;;;;;;;;;;;;;;;;5051232;28;20389;-41
2022/07/26 06:47:48;;;;;;;;;;;;;;;;;;5051601;28;19912;-40
2022/07/26 06:50:13;;;;;;;;;;;;;;;;;;5051681;28;20486;-40
2022/07/26 06:52:39;;;;;;;;;;;;;;;;;;5051899;28;20428;-41
2022/07/26 06:55:04;;;;;;;;;;;;;;;;;;5051857;28;19909;-40
2022/07/26 06:57:29;;;;;;;;;;;;;;;;;;5051537;28;20383;-41
2022/07/26 06:59:54;;;;;;;;;;;;;;;;;;5051453;28;19960;-41
2022/07/26 07:02:20;;;;;;;;;;;;;;;;;;5051713;28;19909;-41
2022/07/26 07:04:45;;;;;;;;;;;;;;;;;;5051475;28;20007;-40
2022/07/26 07:07:10;;;;;;;;;;;;;;;;;;5051711;28;19950;-41
2022/07/26 07:09:36;;;;;;;;;;;;;;;;;;5051584;28;19956;-41
2022/07/26 07:12:02;;;;;;;;;;;;;;;;;;5051336;28;19935;-41
2022/07/26 07:14:27;;;;;;;;;;;;;;;;;;5051474;28;19913;-42
2022/07/26 07:16:53;;;;;;;;;;;;;;;;;;5051268;28;20007;-41
2022/07/26 07:19:18;;;;;;;;;;;;;;;;;;5051222;28;20351;-41
2022/07/26 07:21:43;;;;;;;;;;;;;;;;;;5051561;28;20359;-41
2022/07/26 07:24:08;;;;;;;;;;;;;;;;;;5051234;28;19909;-41
2022/07/26 07:26:34;;;;;;;;;;;;;;;;;;5051273;28;19905;-41
2022/07/26 07:28:59;;;;;;;;;;;;;;;;;;5051067;28;19932;-41
2022/07/26 07:31:24;;;;;;;;;;;;;;;;;;5051201;28;20346;-40
2022/07/26 07:33:50;;;;;;;;;;;;;;;;;;5051494;28;19953;-41
2022/07/26 07:36:15;;;;;;;;;;;;;;;;;;5051039;28;20010;-41
2022/07/26 07:38:40;;;;;;;;;;;;;;;;;;5051376;28;20252;-41
2022/07/26 07:41:06;;;;;;;;;;;;;;;;;;5051003;28;19944;-40
2022/07/26 07:43:31;;;;;;;;;;;;;;;;;;5051130;28;20003;-41
2022/07/26 07:45:56;;;;;;;;;;;;;;;;;;5051343;28;19954;-40
2022/07/26 07:48:22;;;;;;;;;;;;;;;;;;5050901;28;19965;-40
2022/07/26 07:50:47;;;;;;;;;;;;;;;;;;5051120;28;20363;-42
2022/07/26 07:53:12;;;;;;;;;;;;;;;;;;5051255;28;20402;-41
2022/07/26 07:55:38;;;;;;;;;;;;;;;;;;5051445;28;19999;-40
2022/07/26 07:58:03;;;;;;;;;;;;;;;;;;5054511;28;19909;-41
2022/07/26 08:00:28;;;;;;;;;;;;;;;;;;5054869;28;19905;-41
2022/07/26 08:02:54;;;;;;;;;;;;;;;;;;5055005;28;19916;-41
2022/07/26 08:05:19;;;;;;;;;;;;;;;;;;5054464;28;20274;-40
2022/07/26 08:07:44;;;;;;;;;;;;;;;;;;5054558;28;20581;-41
2022/07/26 08:10:10;;;;;;;;;;;;;;;;;;5054184;28;20301;-41
2022/07/26 08:12:35;;;;;;;;;;;;;;;;;;5054399;28;19913;-40
2022/07/26 08:15:01;;;;;;;;;;;;;;;;;;5054214;28;19947;-42
2022/07/26 08:17:26;;;;;;;;;;;;;;;;;;5054041;28;19921;-40
2022/07/26 08:19:51;;;;;;;;;;;;;;;;;;5054139;28;19908;-41
2022/07/26 08:22:17;;;;;;;;;;;;;;;;;;5054021;28;19917;-40
2022/07/26 08:24:44;;;;;;;;;;;;;;;;;;5054002;28;19908;-41
2022/07/26 08:27:09;;;;;;;;;;;;;;;;;;5053998;28;19909;-41
2022/07/26 08:29:35;;;;;;;;;;;;;;;;;;5053877;28;19912;-41
2022/07/26 08:32:00;;;;;;;;;;;;;;;;;;5053801;28;19912;-41
2022/07/26 08:34:25;;;;;;;;;;;;;;;;;;5053869;28;19909;-43
2022/07/26 08:36:51;;;;;;;;;;;;;;;;;;5054105;28;19920;-40
2022/07/26 08:39:16;;;;;;;;;;;;;;;;;;5053541;28;19915;-41
2022/07/26 08:41:41;;;;;;;;;;;;;;;;;;5053832;28;20006;-41
2022/07/26 08:44:06;;;;;;;;;;;;;;;;;;5052273;28;19909;-41
2022/07/26 08:46:32;;;;;;;;;;;;;;;;;;5053722;28;19940;-41
2022/07/26 08:48:57;;;;;;;;;;;;;;;;;;5053523;28;19991;-40
2022/07/26 08:51:23;;;;;;;;;;;;;;;;;;5053479;28;19923;-42
2022/07/26 08:53:48;;;;;;;;;;;;;;;;;;5053496;28;19905;-40
2022/07/26 08:56:13;;;;;;;;;;;;;;;;;;5053435;28;20329;-42
2022/07/26 08:58:39;;;;;;;;;;;;;;;;;;5053365;28;20007;-40
2022/07/26 09:01:04;;;;;;;;;;;;;;;;;;5053284;28;20007;-42
2022/07/26 09:03:30;;;;;;;;;;;;;;;;;;5053643;28;19992;-41
2022/07/26 09:05:59;;;;;;;;;;;;;;;;;;5053526;28;19944;-41
2022/07/26 09:08:24;;;;;;;;;;;;;;;;;;5052962;28;19912;-40
2022/07/26 09:10:49;;;;;;;;;;;;;;;;;;5053456;28;20393;-41
2022/07/26 09:13:15;;;;;;;;;;;;;;;;;;5052963;28;20410;-42
2022/07/26 09:15:40;;;;;;;;;;;;;;;;;;5053152;28;19909;-41
2022/07/26 09:18:06;;;;;;;;;;;;;;;;;;5053251;28;20343;-41
2022/07/26 09:20:31;;;;;;;;;;;;;;;;;;5053109;28;19913;-41
2022/07/26 09:22:57;;;;;;;;;;;;;;;;;;5053196;28;20003;-41
2022/07/26 09:25:22;;;;;;;;;;;;;;;;;;5052910;28;19978;-42
2022/07/26 09:27:47;;;;;;;;;;;;;;;;;;5052702;28;19975;-41
2022/07/26 09:30:13;;;;;;;;;;;;;;;;;;5053030;28;19995;-42
2022/07/26 09:32:38;;;;;;;;;;;;;;;;;;5052803;28;19904;-41
2022/07/26 09:35:04;;;;;;;;;;;;;;;;;;5052596;28;19912;-41
2022/07/26 09:37:29;;;;;;;;;;;;;;;;;;5052907;28;20054;-41
2022/07/26 09:39:54;;;;;;;;;;;;;;;;;;5052933;28;19912;-41
2022/07/26 09:42:20;;;;;;;;;;;;;;;;;;5052403;28;20385;-42
2022/07/26 09:44:45;;;;;;;;;;;;;;;;;;5052898;28;19938;-41
2022/07/26 09:47:10;;;;;;;;;;;;;;;;;;5052683;28;20351;-41
2022/07/26 09:49:36;;;;;;;;;;;;;;;;;;5052365;28;20336;-40
2022/07/26 09:52:01;;;;;;;;;;;;;;;;;;5052693;28;19914;-42
2022/07/26 09:54:27;;;;;;;;;;;;;;;;;;5052648;28;19981;-45
2022/07/26 09:56:52;;;;;;;;;;;;;;;;;;5052570;28;20255;-39
2022/07/26 09:59:17;;;;;;;;;;;;;;;;;;5052204;28;20015;-41
2022/07/26 10:01:43;;;;;;;;;;;;;;;;;;5052271;28;19987;-40
2022/07/26 10:04:08;;;;;;;;;;;;;;;;;;5052092;28;20003;-42
2022/07/26 10:06:34;;;;;;;;;;;;;;;;;;5052135;28;19943;-40
2022/07/26 10:08:59;;;;;;;;;;;;;;;;;;5052237;28;19921;-41
2022/07/26 10:11:24;;;;;;;;;;;;;;;;;;5052389;28;19904;-41
2022/07/26 10:13:50;;;;;;;;;;;;;;;;;;5052341;28;19908;-41
2022/07/26 10:16:15;;;;;;;;;;;;;;;;;;5051877;28;20375;-40
2022/07/26 10:18:41;;;;;;;;;;;;;;;;;;5051195;28;19966;-40
2022/07/26 10:21:07;;;;;;;;;;;;;;;;;;5051937;28;19920;-42
2022/07/26 10:23:32;;;;;;;;;;;;;;;;;;5051972;28;19909;-41
2022/07/26 10:25:58;;;;;;;;;;;;;;;;;;5051925;28;19912;-41
2022/07/26 10:28:25;;;;;;;;;;;;;;;;;;5051936;28;19917;-41
2022/07/26 10:30:50;;;;;;;;;;;;;;;;;;5050419;28;20389;-41
2022/07/26 10:33:16;;;;;;;;;;;;;;;;;;5051891;28;19909;-42
2022/07/26 10:35:45;;;;;;;;;;;;;;;;;;5051797;28;19909;-41
2022/07/26 10:38:10;;;;;;;;;;;;;;;;;;5051597;28;20363;-42
2022/07/26 10:40:35;;;;;;;;;;;;;;;;;;5052037;28;19905;-41
2022/07/26 10:43:00;;;;;;;;;;;;;;;;;;5051880;28;20323;-40
2022/07/26 10:45:26;;;;;;;;;;;;;;;;;;5051935;28;19905;-42
2022/07/26 10:47:51;;;;;;;;;;;;;;;;;;5051580;28;19912;-42
2022/07/26 10:50:17;;;;;;;;;;;;;;;;;;5051483;28;19909;-41
2022/07/26 10:52:42;;;;;;;;;;;;;;;;;;5051595;28;19912;-42
2022/07/26 10:55:08;;;;;;;;;;;;;;;;;;5051601;28;19931;-40
2022/07/26 10:57:33;;;;;;;;;;;;;;;;;;5051448;28;19915;-40
2022/07/26 10:59:58;;;;;;;;;;;;;;;;;;5051792;28;19912;-41
2022/07/26 11:02:25;;;;;;;;;;;;;;;;;;5051374;28;19908;-40
2022/07/26 11:04:50;;;;;;;;;;;;;;;;;;5051608;28;20424;-41
2022/07/26 11:07:16;;;;;;;;;;;;;;;;;;5050051;28;19909;-41
2022/07/26 11:09:41;;;;;;;;;;;;;;;;;;5051334;28;19923;-41
2022/07/26 11:12:07;;;;;;;;;;;;;;;;;;5051440;28;19916;-41
2022/07/26 11:14:32;;;;;;;;;;;;;;;;;;5051388;28;19905;-41
2022/07/26 11:16:57;;;;;;;;;;;;;;;;;;5051364;28;20401;-41
2022/07/26 11:19:28;;;;;;;;;;;;;;;;;;5051265;28;19952;-41
2022/07/26 11:21:53;;;;;;;;;;;;;;;;;;5051222;28;19954;-41
2022/07/26 11:24:20;;;;;;;;;;;;;;;;;;5051254;28;19909;-42
2022/07/26 11:26:46;;;;;;;;;;;;;;;;;;5051236;28;19920;-41
2022/07/26 11:29:11;;;;;;;;;;;;;;;;;;5051329;28;19917;-41
2022/07/26 11:31:36;;;;;;;;;;;;;;;;;;5054863;28;20027;-42
2022/07/26 11:34:02;;;;;;;;;;;;;;;;;;5055258;28;20003;-41
2022/07/26 11:36:27;;;;;;;;;;;;;;;;;;5055044;28;19909;-42
2022/07/26 11:38:55;;;;;;;;;;;;;;;;;;5055241;28;19916;-41
2022/07/26 11:41:21;;;;;;;;;;;;;;;;;;5054816;28;20335;-41
2022/07/26 11:43:47;;;;;;;;;;;;;;;;;;5054901;28;19908;-41
2022/07/26 11:46:13;;;;;;;;;;;;;;;;;;5055023;28;19912;-41
2022/07/26 11:48:38;;;;;;;;;;;;;;;;;;5054940;28;19982;-42
2022/07/26 11:51:03;;;;;;;;;;;;;;;;;;5054582;28;19912;-40
2022/07/26 11:53:28;;;;;;;;;;;;;;;;;;5054937;28;19909;-41
2022/07/26 11:55:54;;;;;;;;;;;;;;;;;;5054626;28;19912;-41
2022/07/26 11:58:19;;;;;;;;;;;;;;;;;;5054433;28;19999;-42
2022/07/26 12:03:10;;;;;;;;;;;;;;;;;;5002686;28;19991;-40
2022/07/26 12:05:36;;;;;;;;;;;;;;;;;;5015036;28;19971;-40
2022/07/26 12:08:06;;;;;;;;;;;;;;;;;;5014823;28;20358;-40
2022/07/26 12:10:31;;;;;;;;;;;;;;;;;;5014848;28;20639;-40
2022/07/26 12:12:56;;;;;;;;;;;;;;;;;;5014823;28;19929;-42
2022/07/26 12:15:22;;;;;;;;;;;;;;;;;;5014695;28;19909;-40
2022/07/26 12:17:47;;;;;;;;;;;;;;;;;;5013567;28;19912;-40
2022/07/26 12:20:12;;;;;;;;;;;;;;;;;;5014940;28;19913;-40
2022/07/26 12:22:37;;;;;;;;;;;;;;;;;;5014653;28;20343;-40
2022/07/26 12:25:03;;;;;;;;;;;;;;;;;;5014653;28;19920;-40
2022/07/26 12:27:29;;;;;;;;;;;;;;;;;;5014749;28;20274;-40
2022/07/26 12:29:54;;;;;;;;;;;;;;;;;;5014389;28;20271;-41
2022/07/26 12:32:20;;;;;;;;;;;;;;;;;;5014636;28;19953;-41
2022/07/26 12:34:45;;;;;;;;;;;;;;;;;;5014516;28;20011;-40
2022/07/26 12:37:10;;;;;;;;;;;;;;;;;;5014202;28;19982;-40
2022/07/26 12:39:36;;;;;;;;;;;;;;;;;;5014575;28;19909;-40
2022/07/26 12:42:02;;;;;;;;;;;;;;;;;;5013537;28;20378;-41
2022/07/26 12:44:27;;;;;;;;;;;;;;;;;;5014030;28;19909;-40
2022/07/26 12:46:52;;;;;;;;;;;;;;;;;;5014233;28;19929;-40
2022/07/26 12:49:18;;;;;;;;;;;;;;;;;;5013985;28;20020;-40
2022/07/26 12:51:43;;;;;;;;;;;;;;;;;;5013994;28;19933;-41
2022/07/26 12:54:09;;;;;;;;;;;;;;;;;;5013932;28;19956;-40
2022/07/26 12:56:34;;;;;;;;;;;;;;;;;;5014322;28;19905;-40
2022/07/26 12:59:00;;;;;;;;;;;;;;;;;;5013970;28;19917;-41
2022/07/26 13:01:25;;;;;;;;;;;;;;;;;;5014056;28;20367;-41
2022/07/26 13:03:50;;;;;;;;;;;;;;;;;;5013606;28;20276;-40
2022/07/26 13:06:18;;;;;;;;;;;;;;;;;;5013684;28;19905;-40
2022/07/26 13:08:44;;;;;;;;;;;;;;;;;;5013958;28;20026;-40
2022/07/26 13:11:09;;;;;;;;;;;;;;;;;;5013589;28;20486;-41
2022/07/26 13:13:35;;;;;;;;;;;;;;;;;;5013435;28;19909;-40
2022/07/26 13:16:00;;;;;;;;;;;;;;;;;;5013636;28;19909;-40
2022/07/26 13:18:25;;;;;;;;;;;;;;;;;;5013461;28;19909;-41
2022/07/26 13:20:51;;;;;;;;;;;;;;;;;;5013722;28;19906;-40
2022/07/26 13:23:16;;;;;;;;;;;;;;;;;;5013625;28;19909;-40
2022/07/26 13:25:41;;;;;;;;;;;;;;;;;;5013419;28;20264;-41
2022/07/26 13:28:07;;;;;;;;;;;;;;;;;;5012275;28;20056;-41
2022/07/26 13:30:32;;;;;;;;;;;;;;;;;;5013505;28;20355;-40
2022/07/26 13:32:58;;;;;;;;;;;;;;;;;;5013307;28;19920;-40
2022/07/26 13:35:23;;;;;;;;;;;;;;;;;;5013042;28;19955;-40
2022/07/26 13:37:48;;;;;;;;;;;;;;;;;;5013458;28;19909;-41
2022/07/26 13:40:14;;;;;;;;;;;;;;;;;;5013343;28;20000;-40
2022/07/26 13:42:39;;;;;;;;;;;;;;;;;;5012950;28;19956;-40
2022/07/26 13:45:04;;;;;;;;;;;;;;;;;;5013340;28;19905;-40
2022/07/26 13:47:29;;;;;;;;;;;;;;;;;;5013225;28;20259;-40
2022/07/26 13:49:55;;;;;;;;;;;;;;;;;;5012879;28;19920;-40
2022/07/26 13:52:20;;;;;;;;;;;;;;;;;;5012902;28;20012;-40
2022/07/26 13:54:45;;;;;;;;;;;;;;;;;;5012928;28;19916;-41
2022/07/26 13:57:11;;;;;;;;;;;;;;;;;;5012714;28;19948;-40
2022/07/26 13:59:36;;;;;;;;;;;;;;;;;;5012897;28;19905;-41
2022/07/26 14:02:03;;;;;;;;;;;;;;;;;;5012766;28;20299;-40
2022/07/26 14:04:28;;;;;;;;;;;;;;;;;;5012506;28;19925;-40
2022/07/26 14:06:54;;;;;;;;;;;;;;;;;;5012689;28;19920;-41
2022/07/26 14:09:19;;;;;;;;;;;;;;;;;;5012473;28;19924;-40
2022/07/26 14:11:44;;;;;;;;;;;;;;;;;;5012573;28;19953;-41
2022/07/26 14:14:10;;;;;;;;;;;;;;;;;;5012705;28;19909;-40
2022/07/26 14:16:35;;;;;;;;;;;;;;;;;;5012785;28;19910;-40
2022/07/26 14:19:00;;;;;;;;;;;;;;;;;;5012535;28;20523;-40
2022/07/26 14:21:26;;;;;;;;;;;;;;;;;;5012708;28;20043;-40
2022/07/26 14:23:51;;;;;;;;;;;;;;;;;;5012391;28;19906;-41
2022/07/26 14:26:16;;;;;;;;;;;;;;;;;;5012371;28;20016;-40
2022/07/26 14:28:42;;;;;;;;;;;;;;;;;;5012568;28;20015;-40
2022/07/26 14:31:07;;;;;;;;;;;;;;;;;;5011027;28;19913;-40
2022/07/26 14:33:32;;;;;;;;;;;;;;;;;;5012154;28;20023;-40
2022/07/26 14:35:57;;;;;;;;;;;;;;;;;;5012608;28;19940;-40
2022/07/26 14:38:23;;;;;;;;;;;;;;;;;;5012351;28;20266;-40
2022/07/26 14:40:49;;;;;;;;;;;;;;;;;;5012474;28;19937;-40
2022/07/26 14:43:14;;;;;;;;;;;;;;;;;;5012343;28;20430;-40
2022/07/26 14:45:39;;;;;;;;;;;;;;;;;;5012155;28;19985;-40
2022/07/26 14:48:05;;;;;;;;;;;;;;;;;;5012146;28;20359;-40
2022/07/26 14:50:30;;;;;;;;;;;;;;;;;;5012033;28;20012;-40
2022/07/26 14:52:55;;;;;;;;;;;;;;;;;;5010821;28;19909;-41
2022/07/26 14:55:21;;;;;;;;;;;;;;;;;;5011990;28;19935;-40
2022/07/26 14:57:46;;;;;;;;;;;;;;;;;;5012051;28;19909;-40
2022/07/26 15:00:11;;;;;;;;;;;;;;;;;;5011887;28;19925;-41
2022/07/26 15:02:37;;;;;;;;;;;;;;;;;;5012094;28;19915;-41
2022/07/26 15:05:02;;;;;;;;;;;;;;;;;;5013173;28;20020;-41
2022/07/26 15:07:27;;;;;;;;;;;;;;;;;;5015875;28;20003;-40
2022/07/26 15:09:53;;;;;;;;;;;;;;;;;;5015898;28;19918;-40
2022/07/26 15:12:18;;;;;;;;;;;;;;;;;;5016049;28;19905;-40
2022/07/26 15:14:44;;;;;;;;;;;;;;;;;;5016173;28;20000;-40
2022/07/26 15:17:10;;;;;;;;;;;;;;;;;;5015899;28;20039;-40
2022/07/26 15:19:35;;;;;;;;;;;;;;;;;;5015728;28;20008;-40
2022/07/26 15:22:01;;;;;;;;;;;;;;;;;;5015922;28;19913;-40
2022/07/26 15:24:27;;;;;;;;;;;;;;;;;;5015678;28;20008;-40
2022/07/26 15:26:52;;;;;;;;;;;;;;;;;;5015678;28;20388;-40
2022/07/26 15:29:18;;;;;;;;;;;;;;;;;;5015658;28;19921;-40
2022/07/26 15:31:43;;;;;;;;;;;;;;;;;;5015542;28;20263;-41
2022/07/26 15:34:09;;;;;;;;;;;;;;;;;;5015788;28;19913;-39
2022/07/26 15:36:35;;;;;;;;;;;;;;;;;;5015369;28;19905;-40
2022/07/26 15:39:00;;;;;;;;;;;;;;;;;;5015499;28;19913;-41
2022/07/26 15:41:25;;;;;;;;;;;;;;;;;;5015347;28;19929;-40
2022/07/26 15:43:51;;;;;;;;;;;;;;;;;;5015171;28;19955;-40
2022/07/26 15:46:16;;;;;;;;;;;;;;;;;;5015328;28;20004;-40
2022/07/26 15:48:41;;;;;;;;;;;;;;;;;;5015135;28;19925;-40
2022/07/26 15:51:07;;;;;;;;;;;;;;;;;;5015187;28;19999;-41
2022/07/26 15:53:34;;;;;;;;;;;;;;;;;;5015218;28;20000;-40
2022/07/26 15:56:01;;;;;;;;;;;;;;;;;;5013855;28;19909;-40
2022/07/26 15:58:28;;;;;;;;;;;;;;;;;;5015270;28;20282;-40
2022/07/26 16:00:54;;;;;;;;;;;;;;;;;;5015040;28;19944;-40
2022/07/26 16:03:19;;;;;;;;;;;;;;;;;;5014657;28;19980;-41
2022/07/26 16:05:46;;;;;;;;;;;;;;;;;;5014987;28;19910;-40
2022/07/26 16:08:11;;;;;;;;;;;;;;;;;;5014720;28;19909;-40
2022/07/26 16:10:37;;;;;;;;;;;;;;;;;;5015091;28;19909;-40
2022/07/26 16:13:02;;;;;;;;;;;;;;;;;;5014741;28;19909;-40
2022/07/26 16:15:27;;;;;;;;;;;;;;;;;;5014938;28;19906;-40
2022/07/26 16:17:53;;;;;;;;;;;;;;;;;;5013479;28;19918;-40
2022/07/26 16:20:19;;;;;;;;;;;;;;;;;;5014806;28;19916;-39
2022/07/26 16:22:44;;;;;;;;;;;;;;;;;;5014826;28;19944;-40
2022/07/26 16:25:12;;;;;;;;;;;;;;;;;;5014812;28;19976;-40
2022/07/26 16:27:37;;;;;;;;;;;;;;;;;;5014740;28;19956;-40
2022/07/26 16:30:02;;;;;;;;;;;;;;;;;;5014688;28;19968;-41
2022/07/26 16:32:28;;;;;;;;;;;;;;;;;;5014516;28;19910;-41
2022/07/26 16:34:53;;;;;;;;;;;;;;;;;;5014371;28;20371;-40
2022/07/26 16:37:19;;;;;;;;;;;;;;;;;;5014214;28;19910;-40
2022/07/26 16:39:44;;;;;;;;;;;;;;;;;;5014518;28;20406;-40